Aviation Digital Data Service (ADDS)

Output produced by TAFs form (1535 UTC 26 September 2016)
found at http://aviationweather.gov/adds/tafs/
 
KTCC 261126Z 2612/2712 34009KT P6SM SKC 
     FM261500 03008KT P6SM SKC 
     FM262000 12007KT P6SM FEW250 
     FM270700 23006KT P6SM SKC